sensor_id;sensor_type;location;lat;lon;timestamp;P1;durP1;ratioP1;P2;durP2;ratioP2
60016;SDS011;45869;52.698;6.210;2022-08-03T00:00:47;6.43;;;1.20;;
60016;SDS011;45869;52.698;6.210;2022-08-03T00:03:16;4.25;;;1.05;;
60016;SDS011;45869;52.698;6.210;2022-08-03T00:05:54;4.55;;;0.90;;
60016;SDS011;45869;52.698;6.210;2022-08-03T00:08:23;4.70;;;1.00;;
60016;SDS011;45869;52.698;6.210;2022-08-03T00:10:49;5.53;;;0.90;;
60016;SDS011;45869;52.698;6.210;2022-08-03T00:13:15;7.60;;;1.10;;
60016;SDS011;45869;52.698;6.210;2022-08-03T00:15:41;6.45;;;1.10;;
60016;SDS011;45869;52.698;6.210;2022-08-03T00:18:08;8.02;;;1.33;;
60016;SDS011;45869;52.698;6.210;2022-08-03T00:20:34;8.02;;;1.30;;
60016;SDS011;45869;52.698;6.210;2022-08-03T00:23:00;4.40;;;1.17;;
60016;SDS011;45869;52.698;6.210;2022-08-03T00:25:26;5.32;;;1.17;;
60016;SDS011;45869;52.698;6.210;2022-08-03T00:27:52;7.35;;;1.30;;
60016;SDS011;45869;52.698;6.210;2022-08-03T00:30:18;6.03;;;1.25;;
60016;SDS011;45869;52.698;6.210;2022-08-03T00:32:56;7.18;;;1.55;;
60016;SDS011;45869;52.698;6.210;2022-08-03T00:35:22;5.60;;;1.25;;
60016;SDS011;45869;52.698;6.210;2022-08-03T00:37:49;8.85;;;1.30;;
60016;SDS011;45869;52.698;6.210;2022-08-03T00:40:18;12.02;;;1.25;;
60016;SDS011;45869;52.698;6.210;2022-08-03T00:42:51;5.97;;;1.27;;
60016;SDS011;45869;52.698;6.210;2022-08-03T00:45:21;7.25;;;1.40;;
60016;SDS011;45869;52.698;6.210;2022-08-03T00:47:48;5.00;;;1.20;;
60016;SDS011;45869;52.698;6.210;2022-08-03T00:50:15;4.53;;;1.05;;
60016;SDS011;45869;52.698;6.210;2022-08-03T00:52:41;6.47;;;1.20;;
60016;SDS011;45869;52.698;6.210;2022-08-03T00:55:08;5.85;;;1.20;;
60016;SDS011;45869;52.698;6.210;2022-08-03T00:57:34;5.68;;;1.35;;
60016;SDS011;45869;52.698;6.210;2022-08-03T01:00:05;8.98;;;1.30;;
60016;SDS011;45869;52.698;6.210;2022-08-03T01:02:31;8.45;;;1.40;;
60016;SDS011;45869;52.698;6.210;2022-08-03T01:04:57;8.75;;;1.40;;
60016;SDS011;45869;52.698;6.210;2022-08-03T01:10:11;6.35;;;1.42;;
60016;SDS011;45869;52.698;6.210;2022-08-03T01:12:49;5.90;;;1.35;;
60016;SDS011;45869;52.698;6.210;2022-08-03T01:17:55;5.18;;;1.10;;
60016;SDS011;45869;52.698;6.210;2022-08-03T01:20:22;7.57;;;1.20;;
60016;SDS011;45869;52.698;6.210;2022-08-03T01:28:32;7.85;;;1.70;;
60016;SDS011;45869;52.698;6.210;2022-08-03T01:31:04;6.90;;;1.23;;
60016;SDS011;45869;52.698;6.210;2022-08-03T01:33:40;4.80;;;1.48;;
60016;SDS011;45869;52.698;6.210;2022-08-03T01:36:13;6.72;;;1.20;;
60016;SDS011;45869;52.698;6.210;2022-08-03T01:38:42;6.30;;;1.52;;
60016;SDS011;45869;52.698;6.210;2022-08-03T01:41:28;8.60;;;1.20;;
60016;SDS011;45869;52.698;6.210;2022-08-03T01:43:54;9.63;;;1.85;;
60016;SDS011;45869;52.698;6.210;2022-08-03T01:46:22;6.93;;;1.67;;
60016;SDS011;45869;52.698;6.210;2022-08-03T01:48:49;5.20;;;1.75;;
60016;SDS011;45869;52.698;6.210;2022-08-03T01:51:17;6.13;;;1.65;;
60016;SDS011;45869;52.698;6.210;2022-08-03T01:53:44;4.60;;;1.25;;
60016;SDS011;45869;52.698;6.210;2022-08-03T01:56:11;9.65;;;1.70;;
60016;SDS011;45869;52.698;6.210;2022-08-03T01:58:50;6.18;;;1.50;;
60016;SDS011;45869;52.698;6.210;2022-08-03T02:01:17;4.95;;;1.60;;
60016;SDS011;45869;52.698;6.210;2022-08-03T02:03:45;5.90;;;1.60;;
60016;SDS011;45869;52.698;6.210;2022-08-03T02:06:12;6.57;;;1.60;;
60016;SDS011;45869;52.698;6.210;2022-08-03T02:08:42;4.80;;;1.58;;
60016;SDS011;45869;52.698;6.210;2022-08-03T02:11:09;8.48;;;1.90;;
60016;SDS011;45869;52.698;6.210;2022-08-03T02:13:35;7.50;;;1.33;;
60016;SDS011;45869;52.698;6.210;2022-08-03T02:16:02;4.78;;;1.35;;
60016;SDS011;45869;52.698;6.210;2022-08-03T02:18:28;6.55;;;1.38;;
60016;SDS011;45869;52.698;6.210;2022-08-03T02:20:55;4.78;;;1.70;;
60016;SDS011;45869;52.698;6.210;2022-08-03T02:23:21;6.97;;;1.80;;
60016;SDS011;45869;52.698;6.210;2022-08-03T02:25:49;7.70;;;1.50;;
60016;SDS011;45869;52.698;6.210;2022-08-03T02:28:18;10.25;;;1.60;;
60016;SDS011;45869;52.698;6.210;2022-08-03T02:30:51;5.03;;;1.70;;
60016;SDS011;45869;52.698;6.210;2022-08-03T02:33:20;6.10;;;1.30;;
60016;SDS011;45869;52.698;6.210;2022-08-03T02:35:49;7.95;;;1.38;;
60016;SDS011;45869;52.698;6.210;2022-08-03T02:38:17;6.72;;;1.40;;
60016;SDS011;45869;52.698;6.210;2022-08-03T02:40:44;6.75;;;1.60;;
60016;SDS011;45869;52.698;6.210;2022-08-03T02:43:15;9.73;;;1.60;;
60016;SDS011;45869;52.698;6.210;2022-08-03T02:45:42;6.68;;;1.20;;
60016;SDS011;45869;52.698;6.210;2022-08-03T02:48:15;5.93;;;1.58;;
60016;SDS011;45869;52.698;6.210;2022-08-03T02:50:41;7.10;;;1.70;;
60016;SDS011;45869;52.698;6.210;2022-08-03T02:53:12;6.93;;;1.40;;
60016;SDS011;45869;52.698;6.210;2022-08-03T02:55:38;4.75;;;1.30;;
60016;SDS011;45869;52.698;6.210;2022-08-03T02:58:05;8.80;;;1.70;;
60016;SDS011;45869;52.698;6.210;2022-08-03T03:00:31;8.77;;;1.60;;
60016;SDS011;45869;52.698;6.210;2022-08-03T03:02:58;8.90;;;1.50;;
60016;SDS011;45869;52.698;6.210;2022-08-03T03:05:25;4.10;;;1.40;;
60016;SDS011;45869;52.698;6.210;2022-08-03T03:07:51;6.65;;;1.67;;
60016;SDS011;45869;52.698;6.210;2022-08-03T03:10:17;4.47;;;1.30;;
60016;SDS011;45869;52.698;6.210;2022-08-03T03:12:43;5.70;;;1.42;;
60016;SDS011;45869;52.698;6.210;2022-08-03T03:15:10;7.80;;;2.10;;
60016;SDS011;45869;52.698;6.210;2022-08-03T03:17:39;6.82;;;1.10;;
60016;SDS011;45869;52.698;6.210;2022-08-03T03:20:06;6.28;;;1.73;;
60016;SDS011;45869;52.698;6.210;2022-08-03T03:22:35;6.28;;;1.50;;
60016;SDS011;45869;52.698;6.210;2022-08-03T03:25:02;6.15;;;1.80;;
60016;SDS011;45869;52.698;6.210;2022-08-03T03:27:33;8.75;;;1.83;;
60016;SDS011;45869;52.698;6.210;2022-08-03T03:29:59;6.75;;;1.73;;
60016;SDS011;45869;52.698;6.210;2022-08-03T03:32:26;5.72;;;1.45;;
60016;SDS011;45869;52.698;6.210;2022-08-03T03:34:55;6.43;;;1.58;;
60016;SDS011;45869;52.698;6.210;2022-08-03T03:37:23;5.53;;;1.38;;
60016;SDS011;45869;52.698;6.210;2022-08-03T03:39:49;7.63;;;1.98;;
60016;SDS011;45869;52.698;6.210;2022-08-03T03:42:15;7.57;;;1.73;;
60016;SDS011;45869;52.698;6.210;2022-08-03T03:44:41;8.55;;;1.90;;
60016;SDS011;45869;52.698;6.210;2022-08-03T03:47:07;7.32;;;1.40;;
60016;SDS011;45869;52.698;6.210;2022-08-03T03:49:33;9.07;;;1.60;;
60016;SDS011;45869;52.698;6.210;2022-08-03T03:51:59;15.27;;;1.83;;
60016;SDS011;45869;52.698;6.210;2022-08-03T03:54:25;7.05;;;1.77;;
60016;SDS011;45869;52.698;6.210;2022-08-03T03:56:51;9.68;;;2.00;;
60016;SDS011;45869;52.698;6.210;2022-08-03T03:59:17;10.13;;;1.85;;
60016;SDS011;45869;52.698;6.210;2022-08-03T04:01:43;6.32;;;1.52;;
60016;SDS011;45869;52.698;6.210;2022-08-03T04:04:12;7.15;;;1.63;;
60016;SDS011;45869;52.698;6.210;2022-08-03T04:06:57;8.60;;;1.88;;
60016;SDS011;45869;52.698;6.210;2022-08-03T04:09:42;10.10;;;2.00;;
60016;SDS011;45869;52.698;6.210;2022-08-03T04:12:28;7.70;;;2.05;;
60016;SDS011;45869;52.698;6.210;2022-08-03T04:14:55;5.78;;;1.70;;
60016;SDS011;45869;52.698;6.210;2022-08-03T04:17:22;9.80;;;2.05;;
60016;SDS011;45869;52.698;6.210;2022-08-03T04:19:51;10.10;;;1.65;;
60016;SDS011;45869;52.698;6.210;2022-08-03T04:22:19;8.57;;;2.22;;
60016;SDS011;45869;52.698;6.210;2022-08-03T04:24:47;8.55;;;2.13;;
60016;SDS011;45869;52.698;6.210;2022-08-03T04:27:15;5.57;;;1.70;;
60016;SDS011;45869;52.698;6.210;2022-08-03T04:29:45;9.00;;;2.05;;
60016;SDS011;45869;52.698;6.210;2022-08-03T04:32:11;8.10;;;1.88;;
60016;SDS011;45869;52.698;6.210;2022-08-03T04:34:38;11.07;;;2.30;;
60016;SDS011;45869;52.698;6.210;2022-08-03T04:37:07;5.95;;;2.00;;
60016;SDS011;45869;52.698;6.210;2022-08-03T04:39:35;7.38;;;1.73;;
60016;SDS011;45869;52.698;6.210;2022-08-03T04:42:02;9.93;;;2.15;;
60016;SDS011;45869;52.698;6.210;2022-08-03T04:44:29;8.80;;;2.10;;
60016;SDS011;45869;52.698;6.210;2022-08-03T04:46:56;8.40;;;1.90;;
60016;SDS011;45869;52.698;6.210;2022-08-03T04:49:22;8.98;;;2.60;;
60016;SDS011;45869;52.698;6.210;2022-08-03T04:51:48;10.90;;;2.10;;
60016;SDS011;45869;52.698;6.210;2022-08-03T04:54:15;9.15;;;2.30;;
60016;SDS011;45869;52.698;6.210;2022-08-03T04:56:41;10.05;;;1.95;;
60016;SDS011;45869;52.698;6.210;2022-08-03T04:59:08;8.82;;;2.25;;
60016;SDS011;45869;52.698;6.210;2022-08-03T05:01:34;8.32;;;2.08;;
60016;SDS011;45869;52.698;6.210;2022-08-03T05:04:00;9.20;;;2.25;;
60016;SDS011;45869;52.698;6.210;2022-08-03T05:06:26;9.93;;;2.15;;
60016;SDS011;45869;52.698;6.210;2022-08-03T05:08:52;7.30;;;1.70;;
60016;SDS011;45869;52.698;6.210;2022-08-03T05:11:19;7.75;;;2.05;;
60016;SDS011;45869;52.698;6.210;2022-08-03T05:13:45;7.10;;;1.80;;
60016;SDS011;45869;52.698;6.210;2022-08-03T05:16:11;6.85;;;2.13;;
60016;SDS011;45869;52.698;6.210;2022-08-03T05:18:38;8.90;;;1.85;;
60016;SDS011;45869;52.698;6.210;2022-08-03T05:21:04;8.90;;;1.90;;
60016;SDS011;45869;52.698;6.210;2022-08-03T05:23:30;10.88;;;1.70;;
60016;SDS011;45869;52.698;6.210;2022-08-03T05:25:56;6.28;;;1.80;;
60016;SDS011;45869;52.698;6.210;2022-08-03T05:28:22;8.68;;;1.77;;
60016;SDS011;45869;52.698;6.210;2022-08-03T05:30:50;7.63;;;2.15;;
60016;SDS011;45869;52.698;6.210;2022-08-03T05:33:19;7.75;;;2.20;;
60016;SDS011;45869;52.698;6.210;2022-08-03T05:35:45;7.93;;;2.10;;
60016;SDS011;45869;52.698;6.210;2022-08-03T05:38:11;7.82;;;2.22;;
60016;SDS011;45869;52.698;6.210;2022-08-03T05:40:37;11.57;;;2.58;;
60016;SDS011;45869;52.698;6.210;2022-08-03T05:43:03;10.25;;;2.72;;
60016;SDS011;45869;52.698;6.210;2022-08-03T05:45:29;6.82;;;2.38;;
60016;SDS011;45869;52.698;6.210;2022-08-03T05:48:01;10.35;;;2.28;;
60016;SDS011;45869;52.698;6.210;2022-08-03T05:50:30;8.57;;;2.20;;
60016;SDS011;45869;52.698;6.210;2022-08-03T05:52:56;11.68;;;2.97;;
60016;SDS011;45869;52.698;6.210;2022-08-03T05:55:22;9.45;;;2.10;;
60016;SDS011;45869;52.698;6.210;2022-08-03T05:57:48;9.15;;;2.45;;
60016;SDS011;45869;52.698;6.210;2022-08-03T06:00:17;7.82;;;2.30;;
60016;SDS011;45869;52.698;6.210;2022-08-03T06:02:46;13.73;;;3.03;;
60016;SDS011;45869;52.698;6.210;2022-08-03T06:05:12;10.98;;;2.50;;
60016;SDS011;45869;52.698;6.210;2022-08-03T06:07:38;10.13;;;2.47;;
60016;SDS011;45869;52.698;6.210;2022-08-03T06:10:04;8.38;;;2.58;;
60016;SDS011;45869;52.698;6.210;2022-08-03T06:12:31;9.68;;;2.72;;
60016;SDS011;45869;52.698;6.210;2022-08-03T06:15:00;9.57;;;2.58;;
60016;SDS011;45869;52.698;6.210;2022-08-03T06:17:26;13.90;;;2.72;;
60016;SDS011;45869;52.698;6.210;2022-08-03T06:19:52;11.40;;;2.78;;
60016;SDS011;45869;52.698;6.210;2022-08-03T06:22:21;9.60;;;2.50;;
60016;SDS011;45869;52.698;6.210;2022-08-03T06:24:50;14.82;;;2.80;;
60016;SDS011;45869;52.698;6.210;2022-08-03T06:27:16;10.13;;;2.78;;
60016;SDS011;45869;52.698;6.210;2022-08-03T06:29:42;9.63;;;2.95;;
60016;SDS011;45869;52.698;6.210;2022-08-03T06:32:08;12.95;;;2.90;;
60016;SDS011;45869;52.698;6.210;2022-08-03T06:34:37;11.50;;;2.70;;
60016;SDS011;45869;52.698;6.210;2022-08-03T06:37:03;11.35;;;2.58;;
60016;SDS011;45869;52.698;6.210;2022-08-03T06:39:32;10.82;;;2.53;;
60016;SDS011;45869;52.698;6.210;2022-08-03T06:41:58;11.23;;;3.08;;
60016;SDS011;45869;52.698;6.210;2022-08-03T06:44:24;10.50;;;2.22;;
60016;SDS011;45869;52.698;6.210;2022-08-03T06:46:50;10.60;;;2.60;;
60016;SDS011;45869;52.698;6.210;2022-08-03T06:49:19;13.02;;;2.38;;
60016;SDS011;45869;52.698;6.210;2022-08-03T06:51:46;15.52;;;2.58;;
60016;SDS011;45869;52.698;6.210;2022-08-03T06:54:12;9.02;;;2.50;;
60016;SDS011;45869;52.698;6.210;2022-08-03T06:56:38;12.70;;;2.30;;
60016;SDS011;45869;52.698;6.210;2022-08-03T06:59:04;9.77;;;2.50;;
60016;SDS011;45869;52.698;6.210;2022-08-03T07:01:30;10.85;;;2.55;;
60016;SDS011;45869;52.698;6.210;2022-08-03T07:03:56;8.65;;;2.58;;
60016;SDS011;45869;52.698;6.210;2022-08-03T07:06:25;9.98;;;2.50;;
60016;SDS011;45869;52.698;6.210;2022-08-03T07:08:51;13.70;;;2.22;;
60016;SDS011;45869;52.698;6.210;2022-08-03T07:11:17;10.73;;;2.72;;
60016;SDS011;45869;52.698;6.210;2022-08-03T07:13:45;11.80;;;2.50;;
60016;SDS011;45869;52.698;6.210;2022-08-03T07:16:11;12.70;;;2.85;;
60016;SDS011;45869;52.698;6.210;2022-08-03T07:18:38;10.52;;;2.67;;
60016;SDS011;45869;52.698;6.210;2022-08-03T07:21:04;11.70;;;2.60;;
60016;SDS011;45869;52.698;6.210;2022-08-03T07:23:30;11.82;;;2.85;;
60016;SDS011;45869;52.698;6.210;2022-08-03T07:25:56;10.50;;;2.53;;
60016;SDS011;45869;52.698;6.210;2022-08-03T07:28:22;16.73;;;2.90;;
60016;SDS011;45869;52.698;6.210;2022-08-03T07:30:48;12.75;;;2.95;;
60016;SDS011;45869;52.698;6.210;2022-08-03T07:33:14;14.57;;;2.65;;
60016;SDS011;45869;52.698;6.210;2022-08-03T07:35:40;12.23;;;2.60;;
60016;SDS011;45869;52.698;6.210;2022-08-03T07:38:06;11.93;;;2.55;;
60016;SDS011;45869;52.698;6.210;2022-08-03T07:40:32;11.50;;;2.40;;
60016;SDS011;45869;52.698;6.210;2022-08-03T07:42:59;14.52;;;2.70;;
60016;SDS011;45869;52.698;6.210;2022-08-03T07:45:27;11.90;;;2.60;;
60016;SDS011;45869;52.698;6.210;2022-08-03T07:47:53;9.90;;;2.58;;
60016;SDS011;45869;52.698;6.210;2022-08-03T07:50:22;11.27;;;2.63;;
60016;SDS011;45869;52.698;6.210;2022-08-03T07:52:48;8.88;;;2.42;;
60016;SDS011;45869;52.698;6.210;2022-08-03T07:55:20;15.95;;;3.00;;
60016;SDS011;45869;52.698;6.210;2022-08-03T07:57:57;18.00;;;3.20;;
60016;SDS011;45869;52.698;6.210;2022-08-03T08:00:23;15.85;;;2.85;;
60016;SDS011;45869;52.698;6.210;2022-08-03T08:02:49;9.07;;;2.20;;
60016;SDS011;45869;52.698;6.210;2022-08-03T08:05:15;9.82;;;2.28;;
60016;SDS011;45869;52.698;6.210;2022-08-03T08:07:42;13.35;;;2.88;;
60016;SDS011;45869;52.698;6.210;2022-08-03T08:10:08;11.85;;;2.20;;
60016;SDS011;45869;52.698;6.210;2022-08-03T08:12:35;14.43;;;2.90;;
60016;SDS011;45869;52.698;6.210;2022-08-03T08:15:01;7.53;;;2.15;;
60016;SDS011;45869;52.698;6.210;2022-08-03T08:17:27;11.43;;;2.15;;
60016;SDS011;45869;52.698;6.210;2022-08-03T08:19:53;10.40;;;2.20;;
60016;SDS011;45869;52.698;6.210;2022-08-03T08:22:19;16.88;;;3.15;;
60016;SDS011;45869;52.698;6.210;2022-08-03T08:24:45;15.23;;;2.20;;
60016;SDS011;45869;52.698;6.210;2022-08-03T08:27:13;10.98;;;1.98;;
60016;SDS011;45869;52.698;6.210;2022-08-03T08:29:39;8.65;;;1.88;;
60016;SDS011;45869;52.698;6.210;2022-08-03T08:32:05;12.80;;;2.10;;
60016;SDS011;45869;52.698;6.210;2022-08-03T08:34:31;9.15;;;2.20;;
60016;SDS011;45869;52.698;6.210;2022-08-03T08:37:00;15.73;;;2.22;;
60016;SDS011;45869;52.698;6.210;2022-08-03T08:39:26;11.10;;;1.98;;
60016;SDS011;45869;52.698;6.210;2022-08-03T08:42:01;10.93;;;1.77;;
60016;SDS011;45869;52.698;6.210;2022-08-03T08:44:30;11.45;;;1.85;;
60016;SDS011;45869;52.698;6.210;2022-08-03T08:46:56;10.40;;;2.28;;
60016;SDS011;45869;52.698;6.210;2022-08-03T08:49:26;17.48;;;2.35;;
60016;SDS011;45869;52.698;6.210;2022-08-03T08:51:52;11.18;;;2.50;;
60016;SDS011;45869;52.698;6.210;2022-08-03T08:54:20;11.52;;;1.90;;
60016;SDS011;45869;52.698;6.210;2022-08-03T08:56:47;11.15;;;1.92;;
60016;SDS011;45869;52.698;6.210;2022-08-03T08:59:14;8.32;;;1.98;;
60016;SDS011;45869;52.698;6.210;2022-08-03T09:01:40;8.48;;;1.88;;
60016;SDS011;45869;52.698;6.210;2022-08-03T09:04:06;9.18;;;2.22;;
60016;SDS011;45869;52.698;6.210;2022-08-03T09:06:33;11.95;;;1.80;;
60016;SDS011;45869;52.698;6.210;2022-08-03T09:08:59;10.60;;;2.13;;
60016;SDS011;45869;52.698;6.210;2022-08-03T09:11:25;10.63;;;1.75;;
60016;SDS011;45869;52.698;6.210;2022-08-03T09:13:52;9.80;;;1.95;;
60016;SDS011;45869;52.698;6.210;2022-08-03T09:16:19;8.77;;;1.95;;
60016;SDS011;45869;52.698;6.210;2022-08-03T09:18:46;11.18;;;1.90;;
60016;SDS011;45869;52.698;6.210;2022-08-03T09:23:46;8.40;;;1.95;;
60016;SDS011;45869;52.698;6.210;2022-08-03T09:26:17;12.70;;;2.50;;
60016;SDS011;45869;52.698;6.210;2022-08-03T09:28:44;7.65;;;1.75;;
60016;SDS011;45869;52.698;6.210;2022-08-03T09:31:10;9.88;;;2.00;;
60016;SDS011;45869;52.698;6.210;2022-08-03T09:33:46;13.15;;;2.33;;
60016;SDS011;45869;52.698;6.210;2022-08-03T09:39:01;9.73;;;2.00;;
60016;SDS011;45869;52.698;6.210;2022-08-03T09:41:36;9.45;;;1.55;;
60016;SDS011;45869;52.698;6.210;2022-08-03T09:44:02;8.48;;;1.90;;
60016;SDS011;45869;52.698;6.210;2022-08-03T09:46:28;14.20;;;1.65;;
60016;SDS011;45869;52.698;6.210;2022-08-03T09:49:09;9.40;;;1.67;;
60016;SDS011;45869;52.698;6.210;2022-08-03T09:51:35;9.20;;;1.65;;
60016;SDS011;45869;52.698;6.210;2022-08-03T09:56:52;12.13;;;2.08;;
60016;SDS011;45869;52.698;6.210;2022-08-03T09:59:22;12.05;;;1.95;;
60016;SDS011;45869;52.698;6.210;2022-08-03T10:01:49;16.48;;;2.08;;
60016;SDS011;45869;52.698;6.210;2022-08-03T10:04:15;10.40;;;2.28;;
60016;SDS011;45869;52.698;6.210;2022-08-03T10:06:45;16.90;;;2.33;;
60016;SDS011;45869;52.698;6.210;2022-08-03T10:09:25;15.75;;;2.28;;
60016;SDS011;45869;52.698;6.210;2022-08-03T10:11:51;13.27;;;2.42;;
60016;SDS011;45869;52.698;6.210;2022-08-03T10:14:17;12.10;;;2.20;;
60016;SDS011;45869;52.698;6.210;2022-08-03T10:16:47;14.15;;;1.95;;
60016;SDS011;45869;52.698;6.210;2022-08-03T10:19:16;11.98;;;2.13;;
60016;SDS011;45869;52.698;6.210;2022-08-03T10:21:54;12.43;;;1.95;;
60016;SDS011;45869;52.698;6.210;2022-08-03T10:24:25;12.60;;;1.98;;
60016;SDS011;45869;52.698;6.210;2022-08-03T10:27:00;11.95;;;1.90;;
60016;SDS011;45869;52.698;6.210;2022-08-03T10:29:27;12.18;;;1.80;;
60016;SDS011;45869;52.698;6.210;2022-08-03T10:31:55;12.85;;;2.10;;
60016;SDS011;45869;52.698;6.210;2022-08-03T10:34:23;14.50;;;2.15;;
60016;SDS011;45869;52.698;6.210;2022-08-03T10:36:50;15.18;;;2.20;;
60016;SDS011;45869;52.698;6.210;2022-08-03T10:39:21;13.48;;;2.03;;
60016;SDS011;45869;52.698;6.210;2022-08-03T10:41:47;10.55;;;2.05;;
60016;SDS011;45869;52.698;6.210;2022-08-03T10:44:17;12.82;;;1.90;;
60016;SDS011;45869;52.698;6.210;2022-08-03T10:46:43;10.73;;;1.88;;
60016;SDS011;45869;52.698;6.210;2022-08-03T10:49:13;14.13;;;2.22;;
60016;SDS011;45869;52.698;6.210;2022-08-03T10:51:41;13.57;;;2.08;;
60016;SDS011;45869;52.698;6.210;2022-08-03T10:54:13;11.50;;;2.05;;
60016;SDS011;45869;52.698;6.210;2022-08-03T10:57:02;16.67;;;2.00;;
60016;SDS011;45869;52.698;6.210;2022-08-03T11:02:14;10.07;;;1.77;;
60016;SDS011;45869;52.698;6.210;2022-08-03T11:04:43;15.73;;;2.08;;
60016;SDS011;45869;52.698;6.210;2022-08-03T11:09:41;15.23;;;2.07;;
60016;SDS011;45869;52.698;6.210;2022-08-03T11:14:53;13.82;;;2.38;;
60016;SDS011;45869;52.698;6.210;2022-08-03T11:17:19;13.93;;;1.83;;
60016;SDS011;45869;52.698;6.210;2022-08-03T11:19:46;13.60;;;2.05;;
60016;SDS011;45869;52.698;6.210;2022-08-03T11:22:13;13.40;;;2.47;;
60016;SDS011;45869;52.698;6.210;2022-08-03T11:29:52;11.70;;;1.88;;
60016;SDS011;45869;52.698;6.210;2022-08-03T11:40:37;11.13;;;2.05;;
60016;SDS011;45869;52.698;6.210;2022-08-03T11:43:08;13.95;;;2.53;;
60016;SDS011;45869;52.698;6.210;2022-08-03T11:45:35;10.65;;;2.17;;
60016;SDS011;45869;52.698;6.210;2022-08-03T11:48:02;7.68;;;1.83;;
60016;SDS011;45869;52.698;6.210;2022-08-03T11:50:37;11.80;;;2.00;;
60016;SDS011;45869;52.698;6.210;2022-08-03T11:53:12;9.55;;;1.80;;
60016;SDS011;45869;52.698;6.210;2022-08-03T11:55:38;11.77;;;1.85;;
60016;SDS011;45869;52.698;6.210;2022-08-03T11:58:07;12.15;;;2.25;;
60016;SDS011;45869;52.698;6.210;2022-08-03T12:00:33;10.65;;;1.63;;
60016;SDS011;45869;52.698;6.210;2022-08-03T12:03:00;12.88;;;1.42;;
60016;SDS011;45869;52.698;6.210;2022-08-03T12:05:43;8.65;;;1.48;;
60016;SDS011;45869;52.698;6.210;2022-08-03T12:08:10;9.75;;;1.30;;
60016;SDS011;45869;52.698;6.210;2022-08-03T12:10:37;10.05;;;1.40;;
60016;SDS011;45869;52.698;6.210;2022-08-03T12:13:06;10.55;;;1.83;;
60016;SDS011;45869;52.698;6.210;2022-08-03T12:15:33;15.93;;;1.80;;
60016;SDS011;45869;52.698;6.210;2022-08-03T12:17:59;10.27;;;1.88;;
60016;SDS011;45869;52.698;6.210;2022-08-03T12:20:26;11.05;;;1.75;;
60016;SDS011;45869;52.698;6.210;2022-08-03T12:22:53;16.40;;;1.80;;
60016;SDS011;45869;52.698;6.210;2022-08-03T12:25:20;11.93;;;1.65;;
60016;SDS011;45869;52.698;6.210;2022-08-03T12:27:47;10.25;;;1.70;;
60016;SDS011;45869;52.698;6.210;2022-08-03T12:30:13;11.05;;;1.73;;
60016;SDS011;45869;52.698;6.210;2022-08-03T12:32:42;9.30;;;1.30;;
60016;SDS011;45869;52.698;6.210;2022-08-03T12:35:08;9.27;;;1.60;;
60016;SDS011;45869;52.698;6.210;2022-08-03T12:37:35;7.68;;;1.38;;
60016;SDS011;45869;52.698;6.210;2022-08-03T12:40:01;10.70;;;1.60;;
60016;SDS011;45869;52.698;6.210;2022-08-03T12:42:34;9.98;;;1.85;;
60016;SDS011;45869;52.698;6.210;2022-08-03T12:45:22;13.25;;;1.73;;
60016;SDS011;45869;52.698;6.210;2022-08-03T12:47:53;9.15;;;1.52;;
60016;SDS011;45869;52.698;6.210;2022-08-03T12:52:54;8.82;;;1.35;;
60016;SDS011;45869;52.698;6.210;2022-08-03T12:55:26;8.00;;;1.40;;
60016;SDS011;45869;52.698;6.210;2022-08-03T12:58:07;9.00;;;1.50;;
60016;SDS011;45869;52.698;6.210;2022-08-03T13:00:36;9.75;;;1.40;;
60016;SDS011;45869;52.698;6.210;2022-08-03T13:03:03;10.52;;;1.77;;
60016;SDS011;45869;52.698;6.210;2022-08-03T13:05:31;7.28;;;1.48;;
60016;SDS011;45869;52.698;6.210;2022-08-03T13:08:00;10.13;;;1.85;;
60016;SDS011;45869;52.698;6.210;2022-08-03T13:10:27;9.60;;;1.50;;
60016;SDS011;45869;52.698;6.210;2022-08-03T13:12:53;9.00;;;1.83;;
60016;SDS011;45869;52.698;6.210;2022-08-03T13:15:22;11.85;;;1.95;;
60016;SDS011;45869;52.698;6.210;2022-08-03T13:17:50;13.07;;;1.83;;
60016;SDS011;45869;52.698;6.210;2022-08-03T13:20:16;7.57;;;1.90;;
60016;SDS011;45869;52.698;6.210;2022-08-03T13:22:45;12.43;;;2.35;;
60016;SDS011;45869;52.698;6.210;2022-08-03T13:25:11;8.93;;;1.38;;
60016;SDS011;45869;52.698;6.210;2022-08-03T13:27:37;8.38;;;1.67;;
60016;SDS011;45869;52.698;6.210;2022-08-03T13:30:04;9.38;;;1.40;;
60016;SDS011;45869;52.698;6.210;2022-08-03T13:32:30;11.68;;;2.00;;
60016;SDS011;45869;52.698;6.210;2022-08-03T13:34:56;12.38;;;1.88;;
60016;SDS011;45869;52.698;6.210;2022-08-03T13:37:22;9.00;;;1.55;;
60016;SDS011;45869;52.698;6.210;2022-08-03T13:39:48;10.52;;;1.90;;
60016;SDS011;45869;52.698;6.210;2022-08-03T13:42:17;10.55;;;2.05;;
60016;SDS011;45869;52.698;6.210;2022-08-03T13:44:43;10.52;;;2.20;;
60016;SDS011;45869;52.698;6.210;2022-08-03T13:47:09;14.95;;;2.15;;
60016;SDS011;45869;52.698;6.210;2022-08-03T13:49:35;10.20;;;1.52;;
60016;SDS011;45869;52.698;6.210;2022-08-03T13:52:01;6.95;;;1.45;;
60016;SDS011;45869;52.698;6.210;2022-08-03T13:54:27;9.32;;;1.42;;
60016;SDS011;45869;52.698;6.210;2022-08-03T13:56:54;7.28;;;1.20;;
60016;SDS011;45869;52.698;6.210;2022-08-03T13:59:20;7.03;;;1.40;;
60016;SDS011;45869;52.698;6.210;2022-08-03T14:01:50;10.20;;;1.42;;
60016;SDS011;45869;52.698;6.210;2022-08-03T14:04:16;5.75;;;1.17;;
60016;SDS011;45869;52.698;6.210;2022-08-03T14:06:42;9.40;;;2.10;;
60016;SDS011;45869;52.698;6.210;2022-08-03T14:09:09;8.00;;;1.65;;
60016;SDS011;45869;52.698;6.210;2022-08-03T14:11:35;7.38;;;1.50;;
60016;SDS011;45869;52.698;6.210;2022-08-03T14:14:01;9.77;;;1.48;;
60016;SDS011;45869;52.698;6.210;2022-08-03T14:16:27;9.60;;;1.83;;
60016;SDS011;45869;52.698;6.210;2022-08-03T14:18:53;8.15;;;1.65;;
60016;SDS011;45869;52.698;6.210;2022-08-03T14:21:19;7.60;;;1.80;;
60016;SDS011;45869;52.698;6.210;2022-08-03T14:23:45;8.48;;;1.50;;
60016;SDS011;45869;52.698;6.210;2022-08-03T14:26:11;6.25;;;1.70;;
60016;SDS011;45869;52.698;6.210;2022-08-03T14:28:38;10.32;;;1.67;;
60016;SDS011;45869;52.698;6.210;2022-08-03T14:31:05;8.88;;;1.58;;
60016;SDS011;45869;52.698;6.210;2022-08-03T14:33:31;13.43;;;1.58;;
60016;SDS011;45869;52.698;6.210;2022-08-03T14:35:57;6.55;;;1.55;;
60016;SDS011;45869;52.698;6.210;2022-08-03T14:38:23;7.82;;;1.30;;
60016;SDS011;45869;52.698;6.210;2022-08-03T14:40:50;9.18;;;1.50;;
60016;SDS011;45869;52.698;6.210;2022-08-03T14:43:17;7.88;;;1.30;;
60016;SDS011;45869;52.698;6.210;2022-08-03T14:45:45;4.97;;;1.27;;
60016;SDS011;45869;52.698;6.210;2022-08-03T14:48:11;8.13;;;1.00;;
60016;SDS011;45869;52.698;6.210;2022-08-03T14:50:37;6.65;;;1.60;;
60016;SDS011;45869;52.698;6.210;2022-08-03T14:53:03;6.10;;;1.52;;
60016;SDS011;45869;52.698;6.210;2022-08-03T14:55:29;6.40;;;1.60;;
60016;SDS011;45869;52.698;6.210;2022-08-03T14:57:58;8.13;;;1.65;;
60016;SDS011;45869;52.698;6.210;2022-08-03T15:00:26;5.53;;;1.42;;
60016;SDS011;45869;52.698;6.210;2022-08-03T15:02:52;5.47;;;1.35;;
60016;SDS011;45869;52.698;6.210;2022-08-03T15:05:18;5.65;;;1.50;;
60016;SDS011;45869;52.698;6.210;2022-08-03T15:07:44;6.47;;;1.50;;
60016;SDS011;45869;52.698;6.210;2022-08-03T15:10:10;7.50;;;1.70;;
60016;SDS011;45869;52.698;6.210;2022-08-03T15:12:36;6.63;;;1.38;;
60016;SDS011;45869;52.698;6.210;2022-08-03T15:15:02;4.72;;;1.70;;
60016;SDS011;45869;52.698;6.210;2022-08-03T15:17:28;8.55;;;1.48;;
60016;SDS011;45869;52.698;6.210;2022-08-03T15:19:54;6.75;;;1.52;;
60016;SDS011;45869;52.698;6.210;2022-08-03T15:22:26;9.35;;;1.90;;
60016;SDS011;45869;52.698;6.210;2022-08-03T15:24:52;9.80;;;1.88;;
60016;SDS011;45869;52.698;6.210;2022-08-03T15:27:20;7.18;;;1.85;;
60016;SDS011;45869;52.698;6.210;2022-08-03T15:29:46;6.65;;;2.03;;